Time;durP1;ratioP1;P1;durP2;ratioP2;P2;SDS_P1;SDS_P2;PMS_P1;PMS_P2;Temp;Humidity;BMP_temperature;BMP_pressure;BME280_temperature;BME280_humidity;BME280_pressure;Samples;Min_cycle;Max_cycle;Signal;HPM_P1;HPM_P2
2022/01/04 00:00:30;;;;;;;10.18;2.58;;;24.80;71.30;;;;;;5011747;28;20022;-71
2022/01/04 00:02:57;;;;;;;29.08;3.78;;;24.80;71.90;;;;;;5011477;28;20503;-71
2022/01/04 00:05:24;;;;;;;11.15;3.22;;;24.80;71.20;;;;;;5012839;28;20052;-71
2022/01/04 00:07:51;;;;;;;9.15;2.72;;;24.90;71.40;;;;;;5012719;28;20053;-71
2022/01/04 00:10:22;;;;;;;9.88;2.40;;;25.10;70.50;;;;;;5012359;28;20036;-71
2022/01/04 00:15:35;;;;;;;10.48;2.80;;;25.10;71.80;;;;;;5012695;28;20499;-71
2022/01/04 00:18:02;;;;;;;18.90;3.17;;;25.20;72.10;;;;;;5011534;28;20049;-71
2022/01/04 00:20:29;;;;;;;17.80;3.33;;;25.30;72.60;;;;;;5012509;28;20461;-71
2022/01/04 00:22:56;;;;;;;10.68;2.85;;;25.50;72.50;;;;;;5012445;28;20022;-71
2022/01/04 00:25:24;;;;;;;22.63;3.78;;;25.60;72.60;;;;;;5012492;28;20389;-69
2022/01/04 00:27:51;;;;;;;16.92;3.10;;;25.60;72.00;;;;;;5012509;28;20057;-70
2022/01/04 00:30:18;;;;;;;13.05;2.53;;;25.60;71.90;;;;;;5012199;28;20076;-71
2022/01/04 00:32:45;;;;;;;11.38;3.00;;;25.50;70.60;;;;;;5011232;28;20041;-71
2022/01/04 00:35:12;;;;;;;10.85;2.72;;;25.30;70.80;;;;;;5012252;28;20088;-71
2022/01/04 00:37:40;;;;;;;14.60;3.17;;;25.30;69.30;;;;;;5011092;28;20018;-71
2022/01/04 00:40:07;;;;;;;12.50;2.88;;;25.20;69.20;;;;;;5010714;28;20061;-71
2022/01/04 00:42:34;;;;;;;10.85;2.78;;;25.30;69.50;;;;;;5012269;28;20022;-71
2022/01/04 00:45:02;;;;;;;15.45;3.22;;;25.30;68.90;;;;;;5012705;28;20037;-71
2022/01/04 00:47:41;;;;;;;14.15;2.75;;;25.30;68.60;;;;;;5010908;28;20073;-70
2022/01/04 00:50:11;;;;;;;13.60;2.63;;;25.30;67.40;;;;;;5010745;28;20046;-71
2022/01/04 00:52:38;;;;;;;14.18;3.80;;;25.30;67.60;;;;;;5011104;28;20469;-71
2022/01/04 00:55:06;;;;;;;17.42;3.63;;;25.30;68.00;;;;;;5011123;28;20536;-70
2022/01/04 00:57:33;;;;;;;11.98;2.88;;;25.30;68.10;;;;;;5012235;28;20392;-70
2022/01/04 01:00:00;;;;;;;11.90;2.67;;;25.30;68.60;;;;;;5011792;28;20029;-70
2022/01/04 01:02:27;;;;;;;16.65;3.38;;;25.20;68.90;;;;;;5011731;28;20104;-70
2022/01/04 01:04:55;;;;;;;11.07;3.22;;;25.30;68.60;;;;;;5010854;28;20045;-70
2022/01/04 01:07:22;;;;;;;10.63;3.22;;;25.40;69.00;;;;;;5010667;28;20034;-71
2022/01/04 01:10:07;;;;;;;11.73;2.50;;;25.50;69.20;;;;;;5011454;28;20059;-69
2022/01/04 01:12:34;;;;;;;12.32;2.95;;;25.40;68.90;;;;;;5011512;28;20460;-70
2022/01/04 01:15:03;;;;;;;12.05;2.90;;;25.40;68.90;;;;;;5012167;28;20038;-70
2022/01/04 01:17:31;;;;;;;10.50;2.83;;;25.50;67.10;;;;;;5011705;28;20476;-70
2022/01/04 01:19:58;;;;;;;17.13;3.75;;;25.40;67.00;;;;;;5011734;28;20029;-70
2022/01/04 01:22:26;;;;;;;11.50;2.97;;;25.40;66.90;;;;;;5011673;28;20414;-70
2022/01/04 01:24:53;;;;;;;18.63;3.67;;;25.40;68.10;;;;;;5011772;28;20044;-70
2022/01/04 01:27:20;;;;;;;22.05;4.18;;;25.50;68.00;;;;;;5011845;28;20109;-70
2022/01/04 01:29:47;;;;;;;21.17;3.67;;;25.40;68.00;;;;;;5011243;28;20034;-70
2022/01/04 01:32:14;;;;;;;18.65;4.28;;;25.40;68.90;;;;;;5011823;28;20022;-70
2022/01/04 01:34:42;;;;;;;14.15;3.10;;;25.40;68.50;;;;;;5011749;28;20528;-70
2022/01/04 01:37:09;;;;;;;13.38;2.80;;;25.30;69.40;;;;;;5011428;28;20038;-70
2022/01/04 01:39:37;;;;;;;11.98;2.75;;;25.40;68.40;;;;;;5011422;28;20061;-70
2022/01/04 01:42:04;;;;;;;26.35;3.35;;;25.30;68.70;;;;;;4994215;28;20101;-70
2022/01/04 01:44:32;;;;;;;15.63;2.80;;;25.30;68.30;;;;;;5011515;28;20025;-69
2022/01/04 01:46:59;;;;;;;9.35;2.40;;;25.30;68.50;;;;;;5010455;28;20022;-70
2022/01/04 01:49:26;;;;;;;16.55;2.92;;;25.30;68.40;;;;;;5011582;28;20121;-70
2022/01/04 01:51:54;;;;;;;13.27;2.72;;;25.40;69.00;;;;;;5011196;28;20580;-70
2022/01/04 01:54:22;;;;;;;12.75;2.88;;;25.50;67.70;;;;;;5015292;28;20030;-70
2022/01/04 01:56:49;;;;;;;16.17;3.08;;;25.50;68.10;;;;;;5014096;28;20041;-71
2022/01/04 01:59:16;;;;;;;10.68;3.30;;;25.50;68.30;;;;;;5013763;28;20132;-70
2022/01/04 02:01:44;;;;;;;15.95;3.00;;;25.60;68.40;;;;;;5015138;28;20073;-70
2022/01/04 02:04:12;;;;;;;14.13;3.00;;;25.70;68.50;;;;;;5014657;28;20057;-70
2022/01/04 02:06:39;;;;;;;12.30;2.72;;;25.70;67.80;;;;;;5013929;28;20551;-70
2022/01/04 02:09:06;;;;;;;22.67;3.58;;;25.60;68.20;;;;;;5013806;28;20468;-70
2022/01/04 02:11:33;;;;;;;15.25;3.35;;;25.60;68.90;;;;;;5013774;28;20034;-70
2022/01/04 02:14:01;;;;;;;12.95;3.10;;;25.50;68.80;;;;;;4997569;28;20018;-70
2022/01/04 02:16:29;;;;;;;10.38;2.63;;;25.50;68.90;;;;;;4996818;28;20029;-71
2022/01/04 02:19:07;;;;;;;19.75;3.50;;;25.50;69.30;;;;;;4996854;28;20038;-70
2022/01/04 02:21:35;;;;;;;13.02;3.00;;;25.50;68.00;;;;;;5013250;28;20026;-70
2022/01/04 02:24:03;;;;;;;13.68;2.85;;;25.60;68.20;;;;;;5013156;28;20503;-71
2022/01/04 02:26:31;;;;;;;14.30;3.85;;;25.70;68.90;;;;;;5013259;28;20085;-70
2022/01/04 02:28:58;;;;;;;13.25;2.47;;;25.70;68.10;;;;;;5013137;28;20088;-70
2022/01/04 02:31:26;;;;;;;10.02;2.60;;;25.70;66.10;;;;;;5013221;28;20018;-70
2022/01/04 02:33:54;;;;;;;17.13;3.05;;;25.50;66.40;;;;;;5013379;28;20030;-70
2022/01/04 02:36:21;;;;;;;15.75;3.03;;;25.40;67.20;;;;;;5014571;28;20502;-71
2022/01/04 02:38:48;;;;;;;15.45;3.10;;;25.40;67.60;;;;;;5014311;28;20464;-70
2022/01/04 02:41:16;;;;;;;14.35;3.38;;;25.50;68.00;;;;;;5014178;28;20049;-70
2022/01/04 02:43:43;;;;;;;12.70;3.60;;;25.50;68.30;;;;;;5014190;28;20113;-71
2022/01/04 02:46:10;;;;;;;12.52;3.08;;;25.70;67.40;;;;;;5014088;28;20030;-70
2022/01/04 02:48:43;;;;;;;14.32;2.75;;;25.80;68.10;;;;;;5013970;28;20022;-71
2022/01/04 02:51:11;;;;;;;19.23;2.78;;;25.80;68.40;;;;;;5014273;28;20125;-70
2022/01/04 02:53:38;;;;;;;12.23;2.67;;;25.70;67.00;;;;;;4996274;28;20107;-71
2022/01/04 02:56:05;;;;;;;15.00;2.58;;;25.60;66.40;;;;;;5013866;28;20354;-70
2022/01/04 02:58:33;;;;;;;16.52;3.83;;;25.60;66.60;;;;;;5013993;28;20026;-70
2022/01/04 03:01:00;;;;;;;13.88;2.83;;;25.80;68.20;;;;;;4996158;28;20026;-70
2022/01/04 03:03:27;;;;;;;11.13;2.78;;;25.80;67.90;;;;;;5013432;28;20042;-70
2022/01/04 03:05:54;;;;;;;13.75;2.47;;;25.90;67.20;;;;;;5013696;28;20026;-70
2022/01/04 03:08:21;;;;;;;13.70;3.10;;;25.90;66.70;;;;;;5014515;28;20026;-70
2022/01/04 03:10:49;;;;;;;11.15;3.30;;;25.90;66.00;;;;;;5013598;28;20022;-70
2022/01/04 03:13:16;;;;;;;9.70;2.85;;;25.90;66.70;;;;;;5013675;28;20022;-71
2022/01/04 03:15:47;;;;;;;12.05;2.58;;;25.80;65.60;;;;;;5013358;28;20030;-71
2022/01/04 03:18:14;;;;;;;9.10;2.13;;;25.80;66.20;;;;;;5012767;28;20028;-71
2022/01/04 03:20:41;;;;;;;10.63;2.72;;;25.90;66.00;;;;;;5013574;28;20037;-71
2022/01/04 03:23:10;;;;;;;8.45;2.28;;;25.90;66.10;;;;;;5013257;28;20026;-70
2022/01/04 03:25:38;;;;;;;10.68;2.17;;;25.90;65.00;;;;;;4996070;28;20025;-70
2022/01/04 03:28:05;;;;;;;7.03;2.05;;;25.80;64.30;;;;;;4995773;28;20117;-70
2022/01/04 03:30:32;;;;;;;14.43;2.40;;;25.80;65.30;;;;;;5013071;28;20100;-70
2022/01/04 03:33:00;;;;;;;10.27;2.35;;;25.70;65.90;;;;;;4995677;28;20029;-71
2022/01/04 03:35:27;;;;;;;12.02;2.08;;;25.70;65.80;;;;;;5012896;28;20030;-70
2022/01/04 03:37:54;;;;;;;10.27;2.35;;;25.70;65.80;;;;;;5012975;28;20029;-70
2022/01/04 03:40:22;;;;;;;10.57;2.75;;;25.70;65.70;;;;;;5013018;28;20083;-70
2022/01/04 03:42:49;;;;;;;7.85;1.92;;;25.80;65.60;;;;;;5012977;28;20026;-71
2022/01/04 03:45:16;;;;;;;14.73;2.47;;;25.80;66.00;;;;;;5013124;28;20033;-70
2022/01/04 03:47:43;;;;;;;9.98;2.75;;;25.80;66.60;;;;;;4995643;28;20518;-69
2022/01/04 03:50:10;;;;;;;17.70;3.55;;;25.80;66.90;;;;;;5011474;28;20487;-71
2022/01/04 03:52:38;;;;;;;10.07;2.20;;;25.80;67.00;;;;;;5011779;28;20030;-69
2022/01/04 03:55:06;;;;;;;8.35;1.90;;;25.80;67.00;;;;;;5012734;28;20167;-70
2022/01/04 03:57:34;;;;;;;11.20;2.35;;;25.70;67.00;;;;;;5012520;28;20499;-71
2022/01/04 04:00:01;;;;;;;11.45;2.20;;;25.70;67.70;;;;;;4995243;28;20034;-71
2022/01/04 04:02:28;;;;;;;9.52;2.33;;;25.70;68.60;;;;;;5011518;28;20029;-70
2022/01/04 04:04:56;;;;;;;14.38;2.50;;;25.70;67.80;;;;;;5011513;28;20105;-70
2022/01/04 04:07:23;;;;;;;11.65;2.80;;;25.60;68.50;;;;;;5012709;28;20020;-70
2022/01/04 04:09:50;;;;;;;8.80;2.28;;;25.50;68.80;;;;;;5012169;28;20029;-69
2022/01/04 04:12:17;;;;;;;16.00;3.63;;;25.50;68.30;;;;;;4995207;28;20045;-70
2022/01/04 04:14:45;;;;;;;10.77;2.42;;;25.50;68.30;;;;;;4994625;28;20034;-70
2022/01/04 04:17:12;;;;;;;13.30;3.30;;;25.40;68.00;;;;;;4994764;28;20022;-71
2022/01/04 04:19:39;;;;;;;10.43;2.70;;;25.40;67.90;;;;;;5012386;28;20025;-71
2022/01/04 04:22:06;;;;;;;14.18;3.00;;;25.40;67.50;;;;;;5012861;28;20053;-71
2022/01/04 04:24:33;;;;;;;12.82;3.03;;;25.40;67.80;;;;;;5012632;28;20033;-71
2022/01/04 04:27:00;;;;;;;9.43;2.40;;;25.40;68.10;;;;;;5012385;28;20116;-71
2022/01/04 04:29:28;;;;;;;7.97;2.42;;;25.40;67.80;;;;;;5010964;28;20112;-71
2022/01/04 04:31:55;;;;;;;12.45;2.33;;;25.40;67.60;;;;;;5012351;28;20025;-70
2022/01/04 04:34:22;;;;;;;13.90;2.33;;;25.30;67.80;;;;;;5012301;28;20030;-71
2022/01/04 04:36:49;;;;;;;8.55;2.13;;;25.30;68.30;;;;;;5012443;28;20022;-71
2022/01/04 04:39:16;;;;;;;8.05;2.35;;;25.30;68.30;;;;;;5012386;28;20037;-70
2022/01/04 04:41:44;;;;;;;14.18;2.65;;;25.30;68.00;;;;;;5012064;28;20018;-70
2022/01/04 04:44:11;;;;;;;8.63;2.55;;;25.30;67.20;;;;;;5012248;28;20439;-70
2022/01/04 04:46:38;;;;;;;13.30;2.35;;;25.30;67.80;;;;;;5012200;28;20357;-69
2022/01/04 04:49:05;;;;;;;12.77;2.38;;;25.30;66.10;;;;;;5011895;28;20076;-70
2022/01/04 04:51:33;;;;;;;15.57;2.47;;;25.30;67.00;;;;;;5011726;28;20050;-71
2022/01/04 04:54:00;;;;;;;11.65;2.10;;;25.30;67.30;;;;;;5010963;28;20019;-71
2022/01/04 04:56:27;;;;;;;11.20;2.50;;;25.30;66.20;;;;;;5012172;28;20025;-70
2022/01/04 04:58:54;;;;;;;10.93;2.80;;;25.30;66.60;;;;;;5011931;28;20026;-70
2022/01/04 05:01:21;;;;;;;10.13;2.70;;;25.40;66.50;;;;;;5012067;28;20030;-71
2022/01/04 05:03:51;;;;;;;8.88;2.20;;;25.40;66.20;;;;;;5011844;28;20038;-71
2022/01/04 05:06:19;;;;;;;14.63;2.85;;;25.40;66.60;;;;;;5012046;28;20022;-70
2022/01/04 05:08:46;;;;;;;10.05;2.30;;;25.40;66.60;;;;;;5010593;28;20121;-71
2022/01/04 05:11:13;;;;;;;10.23;2.70;;;25.50;66.70;;;;;;5011716;28;20018;-70
2022/01/04 05:13:40;;;;;;;10.90;2.38;;;25.40;66.50;;;;;;5011539;28;20026;-70
2022/01/04 05:16:08;;;;;;;20.83;2.17;;;25.50;67.00;;;;;;4994274;28;20130;-71
2022/01/04 05:18:35;;;;;;;18.00;2.80;;;25.50;67.30;;;;;;5011774;28;20037;-71
2022/01/04 05:21:02;;;;;;;10.52;2.28;;;25.50;68.00;;;;;;5011885;28;20056;-71
2022/01/04 05:23:29;;;;;;;15.73;2.28;;;25.50;68.00;;;;;;5011965;28;20022;-70
2022/01/04 05:25:57;;;;;;;13.65;2.33;;;25.40;67.90;;;;;;5011800;28;20407;-70
2022/01/04 05:28:24;;;;;;;9.48;2.35;;;25.40;68.10;;;;;;5015753;28;20029;-70
2022/01/04 05:30:51;;;;;;;8.43;2.30;;;25.30;68.20;;;;;;5015609;28;20021;-70
2022/01/04 05:33:18;;;;;;;8.23;2.08;;;25.30;68.40;;;;;;4982105;28;20033;-70
2022/01/04 05:35:47;;;;;;;10.15;2.35;;;25.30;68.10;;;;;;5015687;28;20076;-70
2022/01/04 05:38:14;;;;;;;9.55;2.28;;;25.30;68.40;;;;;;5015662;28;20112;-70
2022/01/04 05:40:42;;;;;;;9.15;2.05;;;25.20;68.00;;;;;;4997699;28;20029;-70
2022/01/04 05:43:10;;;;;;;12.52;2.35;;;25.30;68.00;;;;;;5015720;28;20029;-69
2022/01/04 05:45:37;;;;;;;11.60;2.80;;;25.30;67.40;;;;;;5015714;28;20034;-69
2022/01/04 05:48:04;;;;;;;7.78;1.90;;;25.30;67.60;;;;;;5015367;28;20026;-69
2022/01/04 05:50:32;;;;;;;13.02;2.05;;;25.30;67.90;;;;;;5015241;28;20072;-70
2022/01/04 05:52:59;;;;;;;11.43;2.40;;;25.30;67.00;;;;;;5014088;28;20480;-70
2022/01/04 05:55:26;;;;;;;10.93;2.13;;;25.40;67.40;;;;;;5015266;28;20061;-70
2022/01/04 05:57:53;;;;;;;14.05;2.85;;;25.40;67.40;;;;;;5014168;28;20029;-70
2022/01/04 06:00:20;;;;;;;9.13;2.13;;;25.40;67.40;;;;;;5013970;28;20022;-70
2022/01/04 06:02:47;;;;;;;10.30;2.58;;;25.40;66.70;;;;;;4997123;28;20061;-70
2022/01/04 06:05:14;;;;;;;9.55;2.33;;;25.40;66.30;;;;;;5014765;28;20045;-70
2022/01/04 06:07:42;;;;;;;9.57;2.35;;;25.40;66.70;;;;;;5014857;28;20096;-70
2022/01/04 06:10:11;;;;;;;7.65;2.15;;;25.40;66.60;;;;;;5014683;28;20542;-70
2022/01/04 06:15:10;;;;;;;8.88;2.03;;;25.40;65.30;;;;;;5015080;28;20552;-70
2022/01/04 06:17:42;;;;;;;7.97;1.98;;;25.40;65.00;;;;;;5014578;28;20022;-70
2022/01/04 06:20:13;;;;;;;9.48;2.08;;;25.30;64.70;;;;;;5013384;28;20092;-70
2022/01/04 06:22:40;;;;;;;8.35;1.90;;;25.30;64.60;;;;;;5014571;28;20025;-71
2022/01/04 06:25:09;;;;;;;8.48;2.40;;;25.30;64.30;;;;;;5014729;28;20022;-70
2022/01/04 06:27:37;;;;;;;25.97;3.17;;;25.30;64.00;;;;;;5013345;28;20033;-70
2022/01/04 06:30:05;;;;;;;7.40;1.80;;;25.30;64.00;;;;;;5013099;28;20030;-70
2022/01/04 06:32:32;;;;;;;5.63;1.77;;;25.30;63.70;;;;;;5014598;28;20022;-70
2022/01/04 06:34:59;;;;;;;7.35;2.10;;;25.30;63.80;;;;;;5013331;28;20037;-70
2022/01/04 06:37:26;;;;;;;9.07;2.33;;;25.30;64.00;;;;;;5013848;28;20113;-69
2022/01/04 06:39:54;;;;;;;8.10;2.03;;;25.30;64.40;;;;;;5014368;28;20500;-69
2022/01/04 06:42:21;;;;;;;7.95;1.98;;;25.30;64.50;;;;;;5014023;28;20026;-70
2022/01/04 06:44:48;;;;;;;8.13;1.98;;;25.40;64.60;;;;;;5013879;28;20030;-69
2022/01/04 06:47:15;;;;;;;9.80;2.45;;;25.40;64.50;;;;;;5014102;28;20091;-70
2022/01/04 06:49:42;;;;;;;7.28;1.92;;;25.40;64.40;;;;;;5012560;28;20038;-70
2022/01/04 06:52:09;;;;;;;12.75;2.45;;;25.30;63.60;;;;;;5014266;28;20101;-70
2022/01/04 06:54:37;;;;;;;6.03;1.58;;;25.30;63.50;;;;;;5012934;28;20034;-69
2022/01/04 06:57:04;;;;;;;8.45;2.50;;;25.30;64.00;;;;;;5013104;28;20093;-69
2022/01/04 06:59:31;;;;;;;5.00;1.55;;;25.30;64.20;;;;;;5013846;28;20100;-70
2022/01/04 07:02:00;;;;;;;9.38;2.25;;;25.30;64.90;;;;;;5012462;28;20033;-69
2022/01/04 07:04:28;;;;;;;7.63;2.10;;;25.30;66.20;;;;;;5014130;28;20041;-70
2022/01/04 07:06:55;;;;;;;5.50;1.60;;;25.30;66.40;;;;;;5013975;28;20029;-69
2022/01/04 07:09:22;;;;;;;10.55;1.60;;;25.30;66.90;;;;;;5012601;28;20072;-70
2022/01/04 07:11:51;;;;;;;9.13;2.00;;;25.30;65.90;;;;;;5013223;28;20494;-69
2022/01/04 07:14:18;;;;;;;6.70;1.63;;;25.20;66.20;;;;;;5013658;28;20022;-70
2022/01/04 07:16:45;;;;;;;5.65;1.50;;;25.20;66.60;;;;;;4996117;28;20025;-70
2022/01/04 07:19:12;;;;;;;4.93;1.58;;;25.20;67.30;;;;;;5013734;28;20010;-70
2022/01/04 07:21:40;;;;;;;8.40;1.92;;;25.10;67.60;;;;;;5013635;28;20029;-70
2022/01/04 07:24:07;;;;;;;4.25;1.30;;;25.10;67.40;;;;;;5013428;28;20026;-70
2022/01/04 07:26:34;;;;;;;4.72;1.20;;;25.10;67.30;;;;;;5011986;28;20092;-70
2022/01/04 07:29:01;;;;;;;5.57;1.40;;;25.00;67.70;;;;;;5013299;28;20022;-70
2022/01/04 07:31:29;;;;;;;7.47;1.90;;;25.00;67.50;;;;;;4995837;28;20034;-69
2022/01/04 07:33:56;;;;;;;6.78;1.83;;;25.00;67.80;;;;;;5013056;28;20208;-69
2022/01/04 07:36:23;;;;;;;10.05;4.20;;;25.00;67.50;;;;;;5013188;28;20025;-70
2022/01/04 07:38:50;;;;;;;11.20;2.60;;;25.00;68.30;;;;;;5013063;28;20034;-69
2022/01/04 07:41:18;;;;;;;11.63;1.90;;;24.90;68.50;;;;;;5013114;28;20018;-70
2022/01/04 07:43:45;;;;;;;10.30;2.00;;;24.90;69.50;;;;;;5013233;28;20472;-69
2022/01/04 07:46:12;;;;;;;8.30;2.10;;;24.90;70.00;;;;;;5013400;28;20030;-69
2022/01/04 07:48:39;;;;;;;6.07;1.67;;;24.90;69.60;;;;;;5012477;28;20022;-70
2022/01/04 07:51:06;;;;;;;5.68;1.83;;;24.80;69.90;;;;;;5012656;28;20065;-70
2022/01/04 07:53:34;;;;;;;6.78;1.77;;;24.90;69.40;;;;;;5012867;28;20018;-70
2022/01/04 07:56:02;;;;;;;8.60;2.00;;;24.80;69.40;;;;;;4995129;28;20033;-70
2022/01/04 07:58:29;;;;;;;7.25;1.60;;;24.80;69.40;;;;;;5012867;28;20029;-70
2022/01/04 08:00:56;;;;;;;5.90;1.50;;;24.80;69.10;;;;;;5012824;28;20119;-70
2022/01/04 08:03:23;;;;;;;7.32;1.80;;;24.80;68.50;;;;;;5012847;28;20129;-70
2022/01/04 08:05:50;;;;;;;9.60;2.10;;;24.80;69.70;;;;;;5011691;28;20473;-70
2022/01/04 08:08:18;;;;;;;5.45;1.80;;;24.90;69.90;;;;;;5011757;28;20478;-70
2022/01/04 08:10:47;;;;;;;7.85;1.88;;;24.90;68.60;;;;;;5011365;28;20033;-70
2022/01/04 08:13:15;;;;;;;6.43;1.55;;;24.80;69.00;;;;;;5012328;28;20477;-70
2022/01/04 08:15:42;;;;;;;6.10;1.60;;;24.80;69.50;;;;;;5012335;28;20025;-70
2022/01/04 08:18:09;;;;;;;6.05;2.10;;;24.80;69.70;;;;;;5011487;28;20026;-69
2022/01/04 08:20:36;;;;;;;6.38;2.00;;;24.80;69.70;;;;;;5012290;28;20030;-70
2022/01/04 08:23:03;;;;;;;7.50;1.75;;;24.80;69.70;;;;;;5012744;28;20017;-70
2022/01/04 08:25:31;;;;;;;8.80;1.90;;;24.80;70.10;;;;;;5012656;28;20119;-70
2022/01/04 08:27:59;;;;;;;7.13;1.70;;;24.80;70.70;;;;;;5012466;28;20031;-70
2022/01/04 08:30:26;;;;;;;7.22;2.05;;;24.80;71.00;;;;;;5011261;28;20041;-70
2022/01/04 08:32:53;;;;;;;9.48;1.75;;;24.80;71.90;;;;;;5012592;28;20034;-70
2022/01/04 08:35:22;;;;;;;7.10;1.85;;;24.80;72.50;;;;;;5012238;28;20101;-70
2022/01/04 08:37:49;;;;;;;6.93;1.60;;;24.80;72.50;;;;;;5012342;28;20353;-70
2022/01/04 08:40:16;;;;;;;6.72;1.90;;;24.70;72.60;;;;;;5010955;28;20022;-69
2022/01/04 08:42:44;;;;;;;7.57;1.90;;;24.70;72.10;;;;;;4994670;28;20473;-70
2022/01/04 08:45:11;;;;;;;11.38;2.40;;;24.60;72.50;;;;;;5012243;28;20096;-70
2022/01/04 08:47:38;;;;;;;6.50;1.83;;;24.50;73.10;;;;;;5012368;28;20022;-70
2022/01/04 08:50:06;;;;;;;7.55;1.48;;;24.50;73.60;;;;;;5011996;28;20038;-70
2022/01/04 08:52:33;;;;;;;5.00;1.50;;;24.50;73.50;;;;;;4994782;28;20025;-70
2022/01/04 08:55:01;;;;;;;12.73;2.35;;;24.50;73.60;;;;;;5012236;28;20025;-70
2022/01/04 08:57:29;;;;;;;9.32;1.90;;;24.50;74.20;;;;;;5010991;28;20033;-70
2022/01/04 08:59:57;;;;;;;8.85;2.03;;;24.50;74.60;;;;;;5011811;28;20042;-70
2022/01/04 09:02:24;;;;;;;11.57;2.63;;;24.50;74.80;;;;;;5011965;28;20030;-70
2022/01/04 09:04:52;;;;;;;7.43;2.03;;;24.40;75.20;;;;;;5011937;28;20065;-70
2022/01/04 09:07:19;;;;;;;10.63;2.15;;;24.40;75.40;;;;;;5010880;28;20041;-70
2022/01/04 09:09:46;;;;;;;9.90;2.47;;;24.40;75.50;;;;;;4994322;28;20488;-70
2022/01/04 09:12:15;;;;;;;7.25;2.45;;;24.40;75.90;;;;;;5010880;28;20075;-70
2022/01/04 09:14:55;;;;;;;7.38;2.00;;;24.30;75.90;;;;;;5011913;28;20022;-70
2022/01/04 09:20:09;;;;;;;8.68;2.60;;;24.30;76.60;;;;;;5011858;28;20073;-70
2022/01/04 09:22:36;;;;;;;9.02;2.05;;;24.30;76.40;;;;;;5011917;28;20026;-70
2022/01/04 09:25:04;;;;;;;6.18;1.80;;;24.30;76.40;;;;;;4994137;28;20392;-70
2022/01/04 09:27:31;;;;;;;7.88;1.58;;;24.30;76.40;;;;;;5011574;28;20159;-70
2022/01/04 09:30:02;;;;;;;6.57;2.13;;;24.30;76.10;;;;;;5011594;28;20034;-70
2022/01/04 09:32:30;;;;;;;7.97;1.88;;;24.30;76.30;;;;;;5011631;28;20400;-70
2022/01/04 09:34:58;;;;;;;7.82;1.92;;;24.30;77.00;;;;;;5010582;28;20060;-69
2022/01/04 09:37:25;;;;;;;8.15;1.90;;;24.30;76.70;;;;;;4994254;28;20033;-70
2022/01/04 09:39:52;;;;;;;7.53;1.90;;;24.30;76.10;;;;;;5011799;28;20069;-69
2022/01/04 09:42:20;;;;;;;9.40;1.85;;;24.30;76.00;;;;;;5011475;28;20030;-70
2022/01/04 09:44:49;;;;;;;7.95;2.17;;;24.30;75.60;;;;;;5010394;28;20416;-70
2022/01/04 09:47:16;;;;;;;9.85;2.00;;;24.20;75.90;;;;;;5011295;28;20060;-69
2022/01/04 09:49:43;;;;;;;7.88;1.98;;;24.20;75.90;;;;;;5011273;28;20041;-70
2022/01/04 09:52:10;;;;;;;10.18;2.05;;;24.20;76.00;;;;;;5011335;28;20104;-70
2022/01/04 09:54:39;;;;;;;5.68;1.80;;;24.20;76.30;;;;;;4994278;28;20029;-70
2022/01/04 09:57:06;;;;;;;9.00;2.00;;;24.30;76.40;;;;;;5010177;28;20033;-70
2022/01/04 09:59:33;;;;;;;10.25;1.90;;;24.30;76.40;;;;;;5010526;28;20057;-70
2022/01/04 10:02:14;;;;;;;7.43;1.80;;;24.30;76.30;;;;;;5009884;28;20034;-70
2022/01/04 10:04:42;;;;;;;9.77;2.10;;;24.30;76.20;;;;;;5011379;28;20054;-70
2022/01/04 10:07:09;;;;;;;6.03;1.63;;;24.20;76.30;;;;;;5011706;28;20384;-71
2022/01/04 10:09:48;;;;;;;9.73;2.28;;;24.30;76.50;;;;;;5010175;28;20588;-70
2022/01/04 10:12:17;;;;;;;12.87;2.10;;;24.30;76.90;;;;;;5011446;28;20033;-70
2022/01/04 10:14:46;;;;;;;9.93;2.10;;;24.30;77.60;;;;;;4997032;28;20061;-70
2022/01/04 10:17:15;;;;;;;10.02;1.85;;;24.20;78.00;;;;;;5013358;28;20056;-70
2022/01/04 10:19:47;;;;;;;9.27;1.90;;;24.20;78.40;;;;;;5014754;28;20030;-70
2022/01/04 10:22:31;;;;;;;15.15;2.47;;;24.20;78.00;;;;;;5014638;28;20030;-70
2022/01/04 10:25:04;;;;;;;4.88;1.50;;;24.20;78.10;;;;;;5014642;28;20075;-70
2022/01/04 10:27:44;;;;;;;8.68;2.00;;;24.20;78.20;;;;;;5014530;28;20061;-70
2022/01/04 10:30:20;;;;;;;5.78;1.85;;;24.10;78.00;;;;;;5013275;28;20045;-70
2022/01/04 10:33:08;;;;;;;6.85;1.70;;;24.10;78.10;;;;;;5014353;28;20018;-70
2022/01/04 10:35:42;;;;;;;5.32;1.50;;;24.10;78.50;;;;;;5013124;28;20027;-70
2022/01/04 10:38:15;;;;;;;8.52;1.95;;;24.10;78.70;;;;;;4996732;28;20022;-70
2022/01/04 10:40:44;;;;;;;7.22;1.90;;;24.20;78.70;;;;;;5014389;28;20534;-70
2022/01/04 10:43:23;;;;;;;7.18;1.90;;;24.20;78.90;;;;;;5013207;28;20053;-69
2022/01/04 10:45:50;;;;;;;10.00;2.08;;;24.20;78.90;;;;;;5012676;28;20034;-70
2022/01/04 10:48:25;;;;;;;7.97;2.10;;;24.20;78.80;;;;;;5012664;28;20392;-70
2022/01/04 10:51:05;;;;;;;7.57;1.60;;;24.10;78.40;;;;;;5012560;28;20113;-70
2022/01/04 10:53:37;;;;;;;6.22;2.00;;;24.10;78.20;;;;;;5014141;28;20018;-70
2022/01/04 10:56:06;;;;;;;9.23;1.92;;;24.10;77.00;;;;;;5014111;28;20392;-70
2022/01/04 10:58:36;;;;;;;8.03;1.93;;;24.10;77.00;;;;;;5012766;28;20022;-70
2022/01/04 11:01:06;;;;;;;7.70;1.67;;;24.10;77.10;;;;;;5013801;28;20030;-70
2022/01/04 11:03:35;;;;;;;11.40;2.00;;;24.10;76.90;;;;;;5013660;28;20088;-70
2022/01/04 11:06:05;;;;;;;6.40;1.58;;;24.00;76.80;;;;;;5013769;28;20032;-70
2022/01/04 11:08:32;;;;;;;5.35;1.67;;;24.00;76.90;;;;;;5012526;28;20079;-70
2022/01/04 11:10:59;;;;;;;6.72;1.75;;;24.00;77.00;;;;;;5013615;28;20053;-70
2022/01/04 11:13:27;;;;;;;5.82;1.80;;;24.00;77.00;;;;;;5012397;28;20022;-71
2022/01/04 11:15:54;;;;;;;11.73;2.20;;;24.00;77.10;;;;;;4996028;28;20080;-70
2022/01/04 11:18:21;;;;;;;9.38;1.70;;;24.00;77.20;;;;;;5012625;28;20041;-70
2022/01/04 11:20:49;;;;;;;9.52;1.83;;;24.00;77.30;;;;;;4996164;28;20018;-70
2022/01/04 11:23:16;;;;;;;8.95;1.67;;;24.10;77.60;;;;;;5012459;28;20022;-70
2022/01/04 11:25:45;;;;;;;10.00;1.90;;;24.10;77.90;;;;;;5013805;28;20017;-70
2022/01/04 11:28:15;;;;;;;10.80;1.90;;;24.00;78.10;;;;;;5013668;28;20103;-70
2022/01/04 11:31:37;;;;;;;7.50;1.92;;;24.10;78.40;;;;;;5012354;28;20041;-70
2022/01/04 11:34:45;;;;;;;9.38;2.10;;;24.10;78.80;;;;;;4972408;28;20019;-70
2022/01/04 11:37:22;;;;;;;9.73;2.47;;;24.00;79.20;;;;;;4941718;29;20027;-70
2022/01/04 11:39:52;;;;;;;11.43;2.47;;;24.00;79.30;;;;;;5005417;28;20488;-70
2022/01/04 11:42:31;;;;;;;;;;;24.00;79.50;;;;;;5012744;28;20037;-70
2022/01/04 11:44:58;;;;;;;6.55;1.65;;;24.00;79.40;;;;;;5013086;28;19908;-70
2022/01/04 11:47:28;;;;;;;12.57;2.42;;;24.00;79.40;;;;;;5013065;28;20022;-70
2022/01/04 11:50:16;;;;;;;11.07;2.90;;;24.00;79.40;;;;;;4995525;28;20538;-70
2022/01/04 11:52:48;;;;;;;6.50;1.70;;;24.00;79.40;;;;;;5013199;28;20440;-70
2022/01/04 11:55:31;;;;;;;7.50;2.17;;;24.00;79.50;;;;;;5013416;28;20037;-70
2022/01/04 11:58:01;;;;;;;9.18;1.73;;;24.00;79.40;;;;;;5012984;28;20040;-71
2022/01/04 12:00:34;;;;;;;6.18;1.65;;;24.00;79.20;;;;;;5013130;28;20022;-70
2022/01/04 12:03:14;;;;;;;6.30;1.70;;;24.00;79.20;;;;;;4992109;28;20456;-70
2022/01/04 12:05:56;;;;;;;6.72;1.80;;;24.00;79.30;;;;;;4993206;28;20453;-70
2022/01/04 12:08:24;;;;;;;7.90;2.03;;;24.00;79.10;;;;;;4993230;28;20034;-71
2022/01/04 12:10:52;;;;;;;10.18;2.03;;;24.00;79.10;;;;;;4992016;28;20498;-70
2022/01/04 12:13:21;;;;;;;6.50;1.70;;;24.00;79.00;;;;;;4992117;28;20041;-70
2022/01/04 12:16:17;;;;;;;9.35;1.90;;;24.00;79.20;;;;;;4992265;28;20030;-70
2022/01/04 12:18:47;;;;;;;7.75;2.00;;;24.00;79.00;;;;;;4977536;28;20030;-70
2022/01/04 12:21:14;;;;;;;8.27;1.77;;;24.00;79.00;;;;;;4993064;28;20093;-70
2022/01/04 12:23:45;;;;;;;11.30;2.13;;;24.00;78.90;;;;;;4993129;28;20014;-70
2022/01/04 12:26:13;;;;;;;8.23;2.33;;;24.00;78.80;;;;;;4993054;28;20381;-70
2022/01/04 12:28:57;;;;;;;7.82;1.83;;;24.00;78.90;;;;;;4992896;28;20018;-70
2022/01/04 12:31:28;;;;;;;7.38;1.80;;;24.00;78.80;;;;;;4992847;28;20040;-70
2022/01/04 12:33:59;;;;;;;6.63;2.00;;;24.00;78.90;;;;;;4993334;28;20409;-70
2022/01/04 12:36:26;;;;;;;7.43;1.98;;;24.00;79.00;;;;;;4992566;28;20026;-70
2022/01/04 12:38:55;;;;;;;7.93;2.08;;;23.90;79.20;;;;;;4992822;28;20018;-70
2022/01/04 12:41:22;;;;;;;10.02;2.45;;;23.90;79.40;;;;;;4992978;28;20058;-70
2022/01/04 12:43:50;;;;;;;6.28;1.92;;;24.00;79.40;;;;;;4992955;28;20054;-70
2022/01/04 12:46:36;;;;;;;6.97;1.83;;;23.90;79.90;;;;;;4991795;28;20038;-70
2022/01/04 12:49:23;;;;;;;9.57;2.17;;;23.80;80.90;;;;;;4992722;28;20512;-70
2022/01/04 12:51:52;;;;;;;10.65;2.40;;;23.70;81.60;;;;;;4992644;28;20050;-70
2022/01/04 12:54:21;;;;;;;12.00;2.50;;;23.60;82.50;;;;;;4992755;28;20018;-70
2022/01/04 12:56:53;;;;;;;10.32;2.55;;;23.60;83.00;;;;;;4992631;28;20034;-70
2022/01/04 12:59:26;;;;;;;11.30;3.00;;;23.50;83.10;;;;;;4992842;28;20094;-70